createdAt,value
2022-12-03T00:02:09.842Z,96565.19
2022-12-03T00:04:36.303Z,96567.06
2022-12-03T00:07:02.723Z,96564.16
2022-12-03T00:09:29.108Z,96557.38
2022-12-03T00:11:55.550Z,96558.47
2022-12-03T00:14:22.120Z,96553.34
2022-12-03T00:16:49.177Z,96552.56
2022-12-03T00:19:15.691Z,96553.66
2022-12-03T00:21:42.082Z,96548.06
2022-12-03T00:24:08.470Z,96554.03
2022-12-03T00:26:34.880Z,96552.63
2022-12-03T00:29:01.240Z,96549.44
2022-12-03T00:31:27.743Z,96556.22
2022-12-03T00:33:54.241Z,96555.41
2022-12-03T00:36:20.638Z,96564.09
2022-12-03T00:38:47.005Z,96552.78
2022-12-03T00:41:13.445Z,96561.97
2022-12-03T00:43:40.107Z,96562.25
2022-12-03T00:46:06.730Z,96550.97
2022-12-03T00:48:33.159Z,96555.03
2022-12-03T00:50:59.610Z,96557.44
2022-12-03T00:53:26.078Z,96559.06
2022-12-03T00:55:52.497Z,96558.31
2022-12-03T00:58:20.962Z,96551.84
2022-12-03T01:00:47.314Z,96545.88
2022-12-03T01:03:13.690Z,96544.81
2022-12-03T01:05:40.084Z,96548.56
2022-12-03T01:08:06.616Z,96555.06
2022-12-03T01:10:34.289Z,96548.56
2022-12-03T01:13:00.683Z,96547.56
2022-12-03T01:15:27.064Z,96538.38
2022-12-03T01:17:53.469Z,96533.78
2022-12-03T01:20:19.917Z,96544.09
2022-12-03T01:22:46.308Z,96549.47
2022-12-03T01:25:12.667Z,96544.59
2022-12-03T01:27:39.023Z,96545.38
2022-12-03T01:30:05.398Z,96546.78
2022-12-03T01:32:31.768Z,96548.69
2022-12-03T01:34:58.126Z,96545.16
2022-12-03T01:37:24.542Z,96543.53
2022-12-03T01:39:50.934Z,96550.28
2022-12-03T01:42:17.331Z,96549.19
2022-12-03T01:44:43.734Z,96548.16
2022-12-03T01:47:10.165Z,96549.75
2022-12-03T01:49:36.603Z,96554.63
2022-12-03T01:52:02.982Z,96560.84
2022-12-03T01:54:29.389Z,96552.50
2022-12-03T01:56:55.758Z,96551.94
2022-12-03T01:59:22.123Z,96556.84
2022-12-03T02:01:48.521Z,96552.50
2022-12-03T02:04:15.052Z,96558.69
2022-12-03T02:06:41.544Z,96563.28
2022-12-03T02:09:08.033Z,96573.00
2022-12-03T02:11:34.387Z,96570.88
2022-12-03T02:14:00.811Z,96568.19
2022-12-03T02:16:27.300Z,96563.88
2022-12-03T02:18:53.738Z,96577.38
2022-12-03T02:21:20.173Z,96566.88
2022-12-03T02:23:46.644Z,96568.75
2022-12-03T02:26:13.158Z,96571.44
2022-12-03T02:28:39.544Z,96550.97
2022-12-03T02:31:06.009Z,96554.47
2022-12-03T02:33:32.422Z,96558.56
2022-12-03T02:36:03.283Z,96552.06
2022-12-03T02:38:30.355Z,96561.25
2022-12-03T02:40:56.758Z,96555.88
2022-12-03T02:43:23.106Z,96557.75
2022-12-03T02:45:49.509Z,96559.06
2022-12-03T02:48:15.859Z,96561.75
2022-12-03T02:50:42.232Z,96563.97
2022-12-03T02:53:08.595Z,96566.13
2022-12-03T02:55:37.085Z,96563.16
2022-12-03T02:58:03.928Z,96570.72
2022-12-03T03:00:30.349Z,96566.94
2022-12-03T03:02:56.800Z,96571.50
2022-12-03T03:05:23.498Z,96567.22
2022-12-03T03:07:49.943Z,96566.94
2022-12-03T03:10:16.395Z,96566.13
2022-12-03T03:12:42.776Z,96570.44
2022-12-03T03:15:09.165Z,96560.72
2022-12-03T03:17:35.537Z,96558.03
2022-12-03T03:20:01.952Z,96547.25
2022-12-03T03:22:28.361Z,96562.91
2022-12-03T03:24:55.075Z,96566.13
2022-12-03T03:27:21.603Z,96558.03
2022-12-03T03:29:48.082Z,96552.13
2022-12-03T03:32:14.459Z,96556.44
2022-12-03T03:34:40.850Z,96554.84
2022-12-03T03:37:07.271Z,96550.25
2022-12-03T03:39:33.686Z,96552.13
2022-12-03T03:42:00.086Z,96540.56
2022-12-03T03:44:26.445Z,96553.22
2022-12-03T03:46:52.842Z,96552.72
2022-12-03T03:49:19.261Z,96559.44
2022-12-03T03:51:45.617Z,96554.31
2022-12-03T03:54:12.056Z,96549.75
2022-12-03T03:56:38.471Z,96550.53
2022-12-03T03:59:04.839Z,96558.91
2022-12-03T04:01:31.327Z,96557.53
2022-12-03T04:03:57.963Z,96552.13
2022-12-03T04:06:24.528Z,96550.53
2022-12-03T04:08:50.905Z,96548.13
2022-12-03T04:11:17.441Z,96547.84
2022-12-03T04:13:43.797Z,96553.53
2022-12-03T04:16:10.286Z,96554.59
2022-12-03T04:18:36.755Z,96546.25
2022-12-03T04:21:03.156Z,96555.13
2022-12-03T04:23:31.135Z,96553.53
2022-12-03T04:25:57.635Z,96547.84
2022-12-03T04:28:24.032Z,96546.25
2022-12-03T04:30:50.463Z,96549.75
2022-12-03T04:33:17.032Z,96542.22
2022-12-03T04:35:43.490Z,96537.13
2022-12-03T04:38:09.955Z,96545.72
2022-12-03T04:40:36.352Z,96543.31
2022-12-03T04:43:02.755Z,96540.63
2022-12-03T04:45:29.275Z,96547.59
2022-12-03T04:47:55.661Z,96548.94
2022-12-03T04:50:22.038Z,96544.63
2022-12-03T04:52:48.417Z,96544.91
2022-12-03T04:55:14.798Z,96550.31
2022-12-03T04:57:41.165Z,96540.91
2022-12-03T05:00:07.532Z,96538.72
2022-12-03T05:02:33.971Z,96544.09
2022-12-03T05:05:00.443Z,96547.91
2022-12-03T05:07:26.956Z,96536.31
2022-12-03T05:09:53.385Z,96535.50
2022-12-03T05:12:19.760Z,96522.53
2022-12-03T05:14:46.166Z,96517.75
2022-12-03T05:17:12.664Z,96520.94
2022-12-03T05:19:39.137Z,96519.34
2022-12-03T05:22:05.525Z,96510.66
2022-12-03T05:24:31.921Z,96521.44
2022-12-03T05:26:58.301Z,96524.66
2022-12-03T05:29:24.723Z,96524.66
2022-12-03T05:31:51.102Z,96520.06
2022-12-03T05:34:17.463Z,96518.69
2022-12-03T05:36:43.918Z,96526.78
2022-12-03T05:39:10.308Z,96520.06
2022-12-03T05:41:36.657Z,96527.06
2022-12-03T05:44:03.035Z,96524.38
2022-12-03T05:46:29.526Z,96527.88
2022-12-03T05:48:56.005Z,96525.97
2022-12-03T05:51:22.380Z,96519.47
2022-12-03T05:53:48.777Z,96530.00
2022-12-03T05:56:15.146Z,96531.06
2022-12-03T05:58:41.551Z,96528.38
2022-12-03T06:01:07.988Z,96533.75
2022-12-03T06:03:34.525Z,96531.34
2022-12-03T06:06:00.978Z,96531.59
2022-12-03T06:08:27.429Z,96531.06
2022-12-03T06:10:53.827Z,96525.66
2022-12-03T06:13:20.202Z,96534.28
2022-12-03T06:15:46.667Z,96533.19
2022-12-03T06:18:13.162Z,96535.09
2022-12-03T06:20:39.591Z,96529.41
2022-12-03T06:23:05.951Z,96528.31
2022-12-03T06:25:32.356Z,96526.44
2022-12-03T06:27:58.713Z,96520.75
2022-12-03T06:30:25.079Z,96520.75
2022-12-03T06:32:51.459Z,96523.44
2022-12-03T06:35:17.892Z,96518.03
2022-12-03T06:37:44.329Z,96509.16
2022-12-03T06:40:10.758Z,96519.41
2022-12-03T06:42:37.200Z,96515.66
2022-12-03T06:45:03.626Z,96526.13
2022-12-03T06:47:30.043Z,96524.00
2022-12-03T06:49:56.403Z,96530.19
2022-12-03T06:52:22.771Z,96532.09
2022-12-03T06:54:49.235Z,96528.59
2022-12-03T06:57:15.634Z,96525.91
2022-12-03T06:59:42.186Z,96530.19
2022-12-03T07:02:08.647Z,96539.31
2022-12-03T07:04:35.026Z,96536.31
2022-12-03T07:07:01.437Z,96542.31
2022-12-03T07:09:27.844Z,96545.00
2022-12-03T07:11:54.320Z,96550.09
2022-12-03T07:14:20.701Z,96546.38
2022-12-03T07:16:47.090Z,96539.09
2022-12-03T07:19:13.558Z,96533.69
2022-12-03T07:21:39.963Z,96549.31
2022-12-03T07:24:06.384Z,96543.41
2022-12-03T07:26:47.842Z,96530.19
2022-12-03T07:29:14.252Z,96536.13
2022-12-03T07:31:40.743Z,96539.31
2022-12-03T07:34:07.172Z,96533.94
2022-12-03T07:36:33.550Z,96538.81
2022-12-03T07:38:59.987Z,96529.63
2022-12-03T07:41:26.449Z,96533.63
2022-12-03T07:43:52.874Z,96531.72
2022-12-03T07:46:19.302Z,96532.03
2022-12-03T07:48:45.688Z,96523.44
2022-12-03T07:51:15.174Z,96523.88
2022-12-03T07:53:42.051Z,96517.69
2022-12-03T07:56:08.420Z,96506.59
2022-12-03T07:58:34.817Z,96497.69
2022-12-03T08:01:01.451Z,96483.09
2022-12-03T08:03:27.899Z,96494.19
2022-12-03T08:05:54.396Z,96488.13
2022-12-03T08:08:20.787Z,96515.91
2022-12-03T08:10:47.168Z,96525.53
2022-12-03T08:13:13.520Z,96520.69
2022-12-03T08:15:39.992Z,96509.31
2022-12-03T08:18:06.380Z,96513.19
2022-12-03T08:20:32.790Z,96509.75
2022-12-03T08:22:59.155Z,96513.50
2022-12-03T08:25:25.587Z,96509.50
2022-12-03T08:27:55.107Z,96507.63
2022-12-03T08:30:21.553Z,96509.81
2022-12-03T08:32:47.939Z,96520.59
2022-12-03T08:35:14.357Z,96519.50
2022-12-03T08:37:40.746Z,96521.38
2022-12-03T08:40:07.516Z,96530.53
2022-12-03T08:42:33.959Z,96532.66
2022-12-03T08:45:00.339Z,96535.84
2022-12-03T08:47:26.735Z,96538.28
2022-12-03T08:49:53.153Z,96544.53
2022-12-03T08:52:19.534Z,96536.50
2022-12-03T08:54:45.953Z,96542.44
2022-12-03T08:57:12.390Z,96538.47
2022-12-03T08:59:42.675Z,96537.94
2022-12-03T09:02:11.882Z,96542.00
2022-12-03T09:04:38.386Z,96543.91
2022-12-03T09:07:04.857Z,96536.38
2022-12-03T09:09:31.265Z,96527.50
2022-12-03T09:11:57.632Z,96531.28
2022-12-03T09:14:24.031Z,96534.28
2022-12-03T09:16:50.498Z,96537.78
2022-12-03T09:19:16.974Z,96545.38
2022-12-03T09:21:43.377Z,96546.44
2022-12-03T09:24:09.750Z,96554.84
2022-12-03T09:26:36.213Z,96551.63
2022-12-03T09:29:05.344Z,96549.13
2022-12-03T09:31:35.486Z,96545.06
2022-12-03T09:34:01.938Z,96541.59
2022-12-03T09:36:28.366Z,96537.78
2022-12-03T09:38:54.741Z,96533.19
2022-12-03T09:41:21.115Z,96533.75
2022-12-03T09:44:03.858Z,96519.78
2022-12-03T09:46:31.294Z,96510.38
2022-12-03T09:48:57.740Z,96516.03
2022-12-03T09:51:24.147Z,96521.16
2022-12-03T09:53:50.523Z,96505.78
2022-12-03T09:56:16.894Z,96507.69
2022-12-03T09:58:43.275Z,96497.69
2022-12-03T10:01:09.719Z,96500.16
2022-12-03T10:03:36.136Z,96505.56
2022-12-03T10:06:02.574Z,96499.06
2022-12-03T10:08:32.177Z,96508.25
2022-12-03T10:10:58.929Z,96511.75
2022-12-03T10:13:26.155Z,96509.66
2022-12-03T10:15:52.628Z,96502.94
2022-12-03T10:18:18.989Z,96505.63
2022-12-03T10:20:45.377Z,96514.22
2022-12-03T10:23:11.857Z,96522.59
2022-12-03T10:25:38.228Z,96519.41
2022-12-03T10:28:04.581Z,96506.72
2022-12-03T10:30:31.180Z,96517.75
2022-12-03T10:32:57.646Z,96511.50
2022-12-03T10:35:24.015Z,96498.03
2022-12-03T10:37:50.451Z,96486.97
2022-12-03T10:40:16.814Z,96495.06
2022-12-03T10:42:43.175Z,96506.34
2022-12-03T10:45:09.544Z,96509.84
2022-12-03T10:47:36.112Z,96520.38
2022-12-03T10:50:02.700Z,96521.75
2022-12-03T10:52:29.078Z,96516.66
2022-12-03T10:54:55.828Z,96522.03
2022-12-03T10:57:22.402Z,96503.72
2022-12-03T10:59:48.785Z,96488.66
2022-12-03T11:02:15.160Z,96492.94
2022-12-03T11:04:41.525Z,96518.00
2022-12-03T11:07:07.916Z,96513.94
2022-12-03T11:09:34.378Z,96508.03
2022-12-03T11:12:00.796Z,96499.44
2022-12-03T11:14:27.197Z,96498.34
2022-12-03T11:16:53.587Z,96481.66
2022-12-03T11:19:20.061Z,96473.69
2022-12-03T11:21:46.663Z,96474.53
2022-12-03T11:24:13.051Z,96461.56
2022-12-03T11:26:39.425Z,96469.03
2022-12-03T11:29:05.963Z,96476.84
2022-12-03T11:31:32.446Z,96475.19
2022-12-03T11:33:58.908Z,96495.66
2022-12-03T11:36:42.295Z,96485.69
2022-12-03T11:39:11.877Z,96478.09
2022-12-03T11:41:38.274Z,96480.72
2022-12-03T11:44:04.654Z,96479.84
2022-12-03T11:46:31.134Z,96483.59
2022-12-03T11:48:57.537Z,96482.19
2022-12-03T11:51:23.906Z,96469.25
2022-12-03T11:53:50.312Z,96461.94
2022-12-03T11:56:16.783Z,96460.25
2022-12-03T11:58:43.175Z,96460.75
2022-12-03T12:01:09.596Z,96451.25
2022-12-03T12:03:36.096Z,96455.88
2022-12-03T12:06:02.548Z,96461.63
2022-12-03T12:08:28.980Z,96459.50
2022-12-03T12:10:55.510Z,96452.44
2022-12-03T12:13:21.900Z,96448.22
2022-12-03T12:15:48.321Z,96441.22
2022-12-03T12:18:14.880Z,96447.16
2022-12-03T12:20:41.274Z,96431.47
2022-12-03T12:23:07.705Z,96437.84
2022-12-03T12:25:34.352Z,96428.97
2022-12-03T12:28:00.722Z,96428.09
2022-12-03T12:30:27.132Z,96432.97
2022-12-03T12:32:53.606Z,96429.50
2022-12-03T12:35:20.036Z,96416.19
2022-12-03T12:37:48.166Z,96417.22
2022-12-03T12:40:16.777Z,96418.09
2022-12-03T12:42:43.219Z,96420.47
2022-12-03T12:45:09.798Z,96404.81
2022-12-03T12:47:36.309Z,96406.91
2022-12-03T12:50:02.920Z,96419.41
2022-12-03T12:52:29.336Z,96409.59
2022-12-03T12:54:59.097Z,96401.66
2022-12-03T12:57:29.600Z,96400.69
2022-12-03T12:59:56.412Z,96404.44
2022-12-03T13:02:22.982Z,96405.41
2022-12-03T13:04:49.443Z,96388.03
2022-12-03T13:07:16.176Z,96395.22
2022-12-03T13:09:42.637Z,96400.84
2022-12-03T13:12:09.049Z,96390.81
2022-12-03T13:14:35.490Z,96394.50
2022-12-03T13:17:01.926Z,96386.91
2022-12-03T13:19:28.304Z,96382.00
2022-12-03T13:21:54.703Z,96387.41
2022-12-03T13:24:21.091Z,96384.22
2022-12-03T13:26:47.479Z,96387.41
2022-12-03T13:29:13.973Z,96388.13
2022-12-03T13:31:43.746Z,96387.31
2022-12-03T13:34:10.831Z,96388.13
2022-12-03T13:36:37.261Z,96385.53
2022-12-03T13:39:03.711Z,96387.41
2022-12-03T13:41:30.075Z,96384.19
2022-12-03T13:43:56.486Z,96380.13
2022-12-03T13:46:22.999Z,96377.50
2022-12-03T13:48:49.436Z,96374.81
2022-12-03T13:51:15.776Z,96361.91
2022-12-03T13:53:42.107Z,96367.31
2022-12-03T13:56:08.517Z,96355.41
2022-12-03T13:58:34.908Z,96352.50
2022-12-03T14:01:01.322Z,96350.72
2022-12-03T14:03:27.717Z,96349.81
2022-12-03T14:05:54.214Z,96365.41
2022-12-03T14:08:20.739Z,96364.50
2022-12-03T14:10:47.285Z,96359.38
2022-12-03T14:13:13.656Z,96365.41
2022-12-03T14:15:40.171Z,96368.59
2022-12-03T14:18:06.575Z,96364.50
2022-12-03T14:20:33.048Z,96369.22
2022-12-03T14:22:59.792Z,96360.91
2022-12-03T14:25:26.361Z,96356.88
2022-12-03T14:27:52.726Z,96355.50
2022-12-03T14:30:19.118Z,96356.38
2022-12-03T14:32:45.510Z,96367.50
2022-12-03T14:35:11.875Z,96355.91
2022-12-03T14:37:38.248Z,96369.56
2022-12-03T14:40:04.668Z,96363.47
2022-12-03T14:42:31.116Z,96356.16
2022-12-03T14:44:57.465Z,96370.97
2022-12-03T14:47:23.890Z,96365.59
2022-12-03T14:49:50.261Z,96360.28
2022-12-03T14:52:16.620Z,96370.19
2022-12-03T14:54:43.074Z,96366.97
2022-12-03T14:57:09.501Z,96363.78
2022-12-03T14:59:36.070Z,96361.56
2022-12-03T15:02:02.756Z,96361.66
2022-12-03T15:04:29.380Z,96358.16
2022-12-03T15:06:55.742Z,96349.56
2022-12-03T15:09:22.135Z,96356.56
2022-12-03T15:11:48.648Z,96359.88
2022-12-03T15:14:15.041Z,96357.19
2022-12-03T15:16:41.473Z,96356.34
2022-12-03T15:19:07.905Z,96354.56
2022-12-03T15:21:34.384Z,96356.97
2022-12-03T15:24:00.801Z,96357.97
2022-12-03T15:26:27.214Z,96362.94
2022-12-03T15:28:53.655Z,96351.78
2022-12-03T15:31:20.114Z,96349.16
2022-12-03T15:33:46.581Z,96346.66
2022-12-03T15:36:13.041Z,96349.75
2022-12-03T15:38:39.413Z,96348.66
2022-12-03T15:41:05.790Z,96360.84
2022-12-03T15:43:32.258Z,96350.16
2022-12-03T15:45:58.680Z,96344.84
2022-12-03T15:48:25.081Z,96350.25
2022-12-03T15:50:51.471Z,96348.16
2022-12-03T15:53:17.845Z,96355.22
2022-12-03T15:55:44.186Z,96347.94
2022-12-03T15:58:10.556Z,96348.16
2022-12-03T16:00:36.969Z,96344.94
2022-12-03T16:03:03.345Z,96343.56
2022-12-03T16:05:29.731Z,96346.66
2022-12-03T16:07:56.123Z,96351.53
2022-12-03T16:10:22.606Z,96346.34
2022-12-03T16:12:48.958Z,96348.75
2022-12-03T16:15:15.337Z,96345.53
2022-12-03T16:17:41.714Z,96336.97
2022-12-03T16:20:08.112Z,96332.16
2022-12-03T16:22:34.585Z,96337.53
2022-12-03T16:25:01.061Z,96340.72
2022-12-03T16:27:27.529Z,96346.94
2022-12-03T16:29:54.254Z,96334.03
2022-12-03T16:32:20.879Z,96336.13
2022-12-03T16:34:47.315Z,96345.84
2022-12-03T16:37:13.850Z,96344.44
2022-12-03T16:39:40.299Z,96346.13
2022-12-03T16:42:10.430Z,96344.31
2022-12-03T16:44:42.641Z,96350.81
2022-12-03T16:47:09.107Z,96345.63
2022-12-03T16:49:35.711Z,96349.13
2022-12-03T16:52:02.175Z,96356.34
2022-12-03T16:54:28.646Z,96354.81
2022-12-03T16:56:55.053Z,96355.63
2022-12-03T16:59:21.438Z,96355.31
2022-12-03T17:01:47.951Z,96355.09
2022-12-03T17:04:14.433Z,96349.13
2022-12-03T17:06:40.807Z,96352.41
2022-12-03T17:09:07.180Z,96356.19
2022-12-03T17:11:33.625Z,96346.50
2022-12-03T17:13:59.987Z,96350.53
2022-12-03T17:16:26.444Z,96346.25
2022-12-03T17:18:52.859Z,96351.59
2022-12-03T17:21:19.406Z,96339.53
2022-12-03T17:23:45.810Z,96351.91
2022-12-03T17:26:12.150Z,96360.50
2022-12-03T17:28:38.482Z,96357.88
2022-12-03T17:31:04.885Z,96364.06
2022-12-03T17:33:31.337Z,96367.72
2022-12-03T17:35:57.800Z,96367.53
2022-12-03T17:38:24.163Z,96361.91
2022-12-03T17:40:50.535Z,96358.41
2022-12-03T17:43:16.907Z,96360.31
2022-12-03T17:45:43.306Z,96361.38
2022-12-03T17:48:09.724Z,96365.09
2022-12-03T17:50:36.130Z,96371.59
2022-12-03T17:53:02.607Z,96353.28
2022-12-03T17:55:37.234Z,96343.06
2022-12-03T17:58:09.200Z,96345.47
2022-12-03T18:00:35.609Z,96337.69
2022-12-03T18:03:01.977Z,96349.25
2022-12-03T18:05:28.346Z,96356.06
2022-12-03T18:07:54.754Z,96355.47
2022-12-03T18:10:21.172Z,96351.66
2022-12-03T18:12:47.596Z,96349.88
2022-12-03T18:15:14.138Z,96358.16
2022-12-03T18:17:40.492Z,96376.25
2022-12-03T18:20:07.115Z,96356.06
2022-12-03T18:22:33.488Z,96349.34
2022-12-03T18:24:59.890Z,96353.88
2022-12-03T18:27:26.298Z,96371.66
2022-12-03T18:29:53.490Z,96376.31
2022-12-03T18:32:28.801Z,96375.53
2022-12-03T18:34:56.450Z,96375.22
2022-12-03T18:37:23.069Z,96350.88
2022-12-03T18:39:49.471Z,96348.78
2022-12-03T18:42:15.825Z,96356.66
2022-12-03T18:44:47.911Z,96357.06
2022-12-03T18:47:16.134Z,96367.00
2022-12-03T18:49:42.611Z,96381.81
2022-12-03T18:52:08.961Z,96374.63
2022-12-03T18:54:35.358Z,96370.84
2022-12-03T18:57:01.757Z,96375.81
2022-12-03T18:59:28.183Z,96370.00
2022-12-03T19:01:54.667Z,96364.81
2022-12-03T19:04:21.138Z,96355.72
2022-12-03T19:06:47.518Z,96357.88
2022-12-03T19:09:13.935Z,96358.94
2022-12-03T19:11:40.298Z,96347.31
2022-12-03T19:14:06.706Z,96342.50
2022-12-03T19:16:33.199Z,96356.25
2022-12-03T19:18:59.693Z,96344.19
2022-12-03T19:21:30.718Z,96343.88
2022-12-03T19:24:23.096Z,96340.97
2022-12-03T19:26:46.223Z,96330.91
2022-12-03T19:29:12.689Z,96335.22
2022-12-03T19:31:39.108Z,96343.69
2022-12-03T19:34:05.602Z,96335.41
2022-12-03T19:36:32.131Z,96331.44
2022-12-03T19:38:58.671Z,96329.28
2022-12-03T19:41:25.045Z,96327.19
2022-12-03T19:43:51.469Z,96327.69
2022-12-03T19:46:18.132Z,96327.69
2022-12-03T19:48:44.611Z,96323.09
2022-12-03T19:51:32.847Z,96325.25
2022-12-03T19:53:57.510Z,96320.13
2022-12-03T19:56:24.005Z,96318.22
2022-12-03T19:58:50.407Z,96328.78
2022-12-03T20:01:16.880Z,96329.66
2022-12-03T20:03:43.345Z,96326.88
2022-12-03T20:06:09.787Z,96335.28
2022-12-03T20:08:36.197Z,96340.38
2022-12-03T20:11:02.610Z,96356.25
2022-12-03T20:13:33.504Z,96348.78
2022-12-03T20:16:02.859Z,96360.66
2022-12-03T20:18:29.375Z,96362.56
2022-12-03T20:20:55.927Z,96360.38
2022-12-03T20:23:22.323Z,96365.84
2022-12-03T20:25:48.698Z,96366.84
2022-12-03T20:28:15.127Z,96366.06
2022-12-03T20:30:41.513Z,96370.34
2022-12-03T20:33:08.006Z,96379.75
2022-12-03T20:35:34.519Z,96378.22
2022-12-03T20:38:02.087Z,96384.56
2022-12-03T20:40:28.514Z,96391.94
2022-12-03T20:42:54.917Z,96402.50
2022-12-03T20:45:21.392Z,96389.81
2022-12-03T20:47:47.813Z,96393.31
2022-12-03T20:50:14.247Z,96395.81
2022-12-03T20:52:48.483Z,96382.50
2022-12-03T20:55:24.405Z,96381.22
2022-12-03T20:57:50.848Z,96383.03
2022-12-03T21:00:17.270Z,96375.81
2022-12-03T21:02:43.781Z,96365.34
2022-12-03T21:05:10.366Z,96355.94
2022-12-03T21:07:36.889Z,96355.34
2022-12-03T21:10:03.321Z,96352.34
2022-12-03T21:12:29.729Z,96349.44
2022-12-03T21:14:56.308Z,96352.94
2022-12-03T21:17:23.033Z,96334.34
2022-12-03T21:19:49.391Z,96327.38
2022-12-03T21:22:15.728Z,96310.69
2022-12-03T21:24:42.141Z,96305.47
2022-12-03T21:27:08.525Z,96344.03
2022-12-03T21:29:34.885Z,96356.22
2022-12-03T21:32:01.376Z,96332.44
2022-12-03T21:34:32.809Z,96330.56
2022-12-03T21:37:02.539Z,96328.53
2022-12-03T21:39:28.988Z,96326.56
2022-12-03T21:42:33.353Z,96332.44
2022-12-03T21:44:42.016Z,96320.56
2022-12-03T21:47:13.974Z,96317.69
2022-12-03T21:49:41.071Z,96334.66
2022-12-03T21:52:07.538Z,96333.06
2022-12-03T21:54:34.153Z,96321.34
2022-12-03T21:57:00.566Z,96343.31
2022-12-03T21:59:27.031Z,96362.50
2022-12-03T22:01:53.449Z,96359.59
2022-12-03T22:04:19.922Z,96355.00
2022-12-03T22:06:46.316Z,96323.16
2022-12-03T22:09:12.774Z,96313.47
2022-12-03T22:11:39.249Z,96315.84
2022-12-03T22:14:05.648Z,96312.63
2022-12-03T22:16:32.077Z,96317.22
2022-12-03T22:18:58.499Z,96324.03
2022-12-03T22:21:24.959Z,96331.50
2022-12-03T22:23:51.334Z,96354.50
2022-12-03T22:26:17.742Z,96357.19
2022-12-03T22:28:44.464Z,96345.00
2022-12-03T22:31:10.923Z,96344.00
2022-12-03T22:33:37.337Z,96324.03
2022-12-03T22:36:03.715Z,96326.72
2022-12-03T22:38:30.169Z,96324.84
2022-12-03T22:40:56.552Z,96334.22
2022-12-03T22:43:22.920Z,96326.44
2022-12-03T22:45:49.393Z,96328.94
2022-12-03T22:48:15.790Z,96337.81
2022-12-03T22:50:42.182Z,96327.03
2022-12-03T22:53:08.575Z,96317.84
2022-12-03T22:55:34.952Z,96320.84
2022-12-03T22:58:01.377Z,96319.22
2022-12-03T23:00:27.754Z,96321.13
2022-12-03T23:02:54.227Z,96318.63
2022-12-03T23:05:20.623Z,96325.41
2022-12-03T23:07:47.089Z,96322.72
2022-12-03T23:10:13.486Z,96324.59
2022-12-03T23:12:39.849Z,96327.59
2022-12-03T23:15:06.245Z,96332.78
2022-12-03T23:17:32.601Z,96331.72
2022-12-03T23:19:59.013Z,96339.28
2022-12-03T23:22:25.391Z,96334.97
2022-12-03T23:24:51.770Z,96338.16
2022-12-03T23:27:18.264Z,96348.94
2022-12-03T23:29:44.623Z,96331.78
2022-12-03T23:32:11.002Z,96330.06
2022-12-03T23:34:37.458Z,96338.78
2022-12-03T23:37:03.861Z,96338.16
2022-12-03T23:39:30.215Z,96333.88
2022-12-03T23:41:56.637Z,96332.78
2022-12-03T23:44:23.057Z,96336.56
2022-12-03T23:46:49.634Z,96332.28
2022-12-03T23:49:16.100Z,96329.66
2022-12-03T23:51:42.485Z,96335.78
2022-12-03T23:54:08.845Z,96330.38
2022-12-03T23:56:35.241Z,96319.59
2022-12-03T23:59:01.629Z,96316.41
